createdAt,value
2022-07-28T00:01:38.253Z,95366.00
2022-07-28T00:04:25.278Z,95360.25
2022-07-28T00:07:11.996Z,95349.06
2022-07-28T00:10:00.550Z,95344.69
2022-07-28T00:12:47.235Z,95337.31
2022-07-28T00:15:33.206Z,95319.53
2022-07-28T00:18:19.091Z,95352.59
2022-07-28T00:21:05.056Z,95340.56
2022-07-28T00:23:50.842Z,95346.84
2022-07-28T00:26:36.671Z,95363.50
2022-07-28T00:29:22.463Z,95373.06
2022-07-28T00:32:08.660Z,95358.59
2022-07-28T00:34:54.772Z,95357.22
2022-07-28T00:37:40.755Z,95366.22
2022-07-28T00:40:46.886Z,95361.34
2022-07-28T00:43:32.939Z,95361.34
2022-07-28T00:46:21.513Z,95343.28
2022-07-28T00:49:07.692Z,95362.41
2022-07-28T00:51:53.626Z,95362.97
2022-07-28T00:54:39.560Z,95339.75
2022-07-28T00:57:25.434Z,95357.50
2022-07-28T01:00:11.768Z,95350.13
2022-07-28T01:02:58.117Z,95340.84
2022-07-28T01:05:49.204Z,95323.09
2022-07-28T01:09:29.730Z,95331.00
2022-07-28T01:12:35.124Z,95330.75
2022-07-28T01:15:44.734Z,95330.47
2022-07-28T01:18:36.948Z,95319.81
2022-07-28T01:21:27.264Z,95331.56
2022-07-28T01:24:34.054Z,95334.28
2022-07-28T01:27:49.507Z,95336.72
2022-07-28T01:30:40.203Z,95329.63
2022-07-28T01:33:35.533Z,95321.16
2022-07-28T01:36:23.556Z,95334.25
2022-07-28T01:39:10.578Z,95344.06
2022-07-28T01:41:57.067Z,95344.31
2022-07-28T01:44:45.522Z,95329.31
2022-07-28T01:47:32.702Z,95313.16
2022-07-28T01:50:20.832Z,95327.91
2022-07-28T01:53:10.734Z,95328.72
2022-07-28T01:55:57.213Z,95324.88
2022-07-28T01:58:44.736Z,95334.44
2022-07-28T02:01:32.524Z,95320.78
2022-07-28T02:04:20.443Z,95342.31
2022-07-28T02:07:08.371Z,95351.31
2022-07-28T02:09:55.293Z,95342.00
2022-07-28T02:12:42.104Z,95325.09
2022-07-28T02:15:29.040Z,95321.00
2022-07-28T02:18:15.373Z,95320.47
2022-07-28T02:21:01.810Z,95345.53
2022-07-28T02:23:48.735Z,95339.56
2022-07-28T02:26:37.202Z,95314.41
2022-07-28T02:29:49.137Z,95332.72
2022-07-28T02:32:36.936Z,95342.56
2022-07-28T02:35:27.923Z,95344.72
2022-07-28T02:38:22.075Z,95345.81
2022-07-28T02:41:29.179Z,95349.88
2022-07-28T02:44:18.705Z,95341.97
2022-07-28T02:47:09.002Z,95355.09
2022-07-28T02:49:55.918Z,95347.13
2022-07-28T02:52:42.981Z,95368.97
2022-07-28T02:55:30.758Z,95371.66
2022-07-28T02:58:21.152Z,95376.03
2022-07-28T03:01:07.373Z,95380.91
2022-07-28T03:03:55.563Z,95383.38
2022-07-28T03:06:42.177Z,95381.50
2022-07-28T03:09:28.946Z,95355.00
2022-07-28T03:12:15.151Z,95358.56
2022-07-28T03:15:01.074Z,95375.44
2022-07-28T03:17:47.047Z,95384.41
2022-07-28T03:20:33.275Z,95361.78
2022-07-28T03:23:20.026Z,95367.22
2022-07-28T03:26:11.326Z,95365.00
2022-07-28T03:28:58.164Z,95373.00
2022-07-28T03:31:45.361Z,95354.97
2022-07-28T03:34:31.398Z,95352.47
2022-07-28T03:37:24.338Z,95367.53
2022-07-28T03:40:11.553Z,95389.88
2022-07-28T03:42:58.430Z,95374.78
2022-07-28T03:45:46.826Z,95362.31
2022-07-28T03:48:34.866Z,95342.69
2022-07-28T03:51:21.225Z,95343.78
2022-07-28T03:54:07.234Z,95338.03
2022-07-28T03:56:53.151Z,95326.59
2022-07-28T03:59:39.000Z,95337.25
2022-07-28T04:02:25.064Z,95345.38
2022-07-28T04:05:16.874Z,95399.63
2022-07-28T04:08:02.837Z,95403.81
2022-07-28T04:10:49.536Z,95409.94
2022-07-28T04:13:37.233Z,95397.13
2022-07-28T04:16:24.328Z,95370.72
2022-07-28T04:19:10.245Z,95404.28
2022-07-28T04:21:56.160Z,95386.03
2022-07-28T04:24:42.035Z,95406.06
2022-07-28T04:27:28.315Z,95415.94
2022-07-28T04:30:18.655Z,95418.19
2022-07-28T04:33:04.516Z,95425.59
2022-07-28T04:35:52.638Z,95427.31
2022-07-28T04:38:39.013Z,95425.47
2022-07-28T04:41:27.058Z,95426.56
2022-07-28T04:44:13.164Z,95424.38
2022-07-28T04:46:59.471Z,95417.91
2022-07-28T04:49:45.404Z,95420.84
2022-07-28T04:52:31.730Z,95456.03
2022-07-28T04:55:18.437Z,95461.97
2022-07-28T04:58:04.426Z,95475.38
2022-07-28T05:00:53.128Z,95447.00
2022-07-28T05:03:39.431Z,95465.84
2022-07-28T05:06:25.294Z,95471.00
2022-07-28T05:09:11.209Z,95451.41
2022-07-28T05:11:57.146Z,95417.38
2022-07-28T05:14:42.988Z,95471.06
2022-07-28T05:17:28.882Z,95479.19
2022-07-28T05:20:14.773Z,95452.94
2022-07-28T05:23:00.861Z,95445.66
2022-07-28T05:25:46.834Z,95462.06
2022-07-28T05:28:33.258Z,95431.25
2022-07-28T05:31:19.901Z,95446.59
2022-07-28T05:34:06.211Z,95446.59
2022-07-28T05:36:52.137Z,95448.56
2022-07-28T05:39:38.330Z,95444.38
2022-07-28T05:42:26.602Z,95462.72
2022-07-28T05:45:16.525Z,95455.66
2022-07-28T05:48:03.063Z,95463.53
2022-07-28T05:50:50.126Z,95463.00
2022-07-28T05:53:36.227Z,95458.94
2022-07-28T05:56:23.086Z,95459.09
2022-07-28T05:59:10.273Z,95479.03
2022-07-28T06:01:56.497Z,95475.81
2022-07-28T06:04:42.221Z,95461.00
2022-07-28T06:07:43.552Z,95449.47
2022-07-28T06:10:48.752Z,95464.75
2022-07-28T06:13:36.354Z,95464.25
2022-07-28T06:16:23.562Z,95475.72
2022-07-28T06:19:09.592Z,95447.88
2022-07-28T06:21:55.406Z,95469.84
2022-07-28T06:24:42.163Z,95461.66
2022-07-28T06:27:27.929Z,95461.94
2022-07-28T06:30:14.095Z,95467.47
2022-07-28T06:33:00.126Z,95460.41
2022-07-28T06:35:50.796Z,95459.41
2022-07-28T06:38:37.313Z,95449.63
2022-07-28T06:41:23.191Z,95457.59
2022-07-28T06:44:09.418Z,95440.72
2022-07-28T06:46:55.496Z,95450.53
2022-07-28T06:49:41.396Z,95461.06
2022-07-28T06:52:27.475Z,95463.53
2022-07-28T11:25:19.208Z,95419.28
2022-07-28T11:28:07.679Z,95412.78
2022-07-28T11:30:55.052Z,95407.38
2022-07-28T11:33:57.631Z,95409.13
2022-07-28T11:36:59.189Z,95402.41
2022-07-28T11:39:45.352Z,95385.81
2022-07-28T11:42:33.804Z,95399.38
2022-07-28T11:45:26.520Z,95394.22
2022-07-28T11:48:26.348Z,95394.41
2022-07-28T11:51:14.021Z,95376.75
2022-07-28T11:54:00.031Z,95376.59
2022-07-28T11:56:46.025Z,95385.88
2022-07-28T12:00:02.342Z,95379.19
2022-07-28T12:02:52.145Z,95379.06
2022-07-28T12:05:42.064Z,95377.53
2022-07-28T12:08:29.331Z,95377.66
2022-07-28T12:11:15.690Z,95370.69
2022-07-28T12:14:07.237Z,95369.69
2022-07-28T12:16:53.677Z,95372.63
2022-07-28T12:19:39.824Z,95371.31
2022-07-28T12:22:25.936Z,95364.28
2022-07-28T12:25:13.297Z,95355.84
2022-07-28T12:28:14.652Z,95363.66
2022-07-28T12:31:13.752Z,95359.50
2022-07-28T12:34:00.302Z,95364.59
2022-07-28T12:36:46.558Z,95366.00
2022-07-28T12:39:36.928Z,95353.13
2022-07-28T12:42:25.134Z,95351.59
2022-07-28T12:45:12.407Z,95346.84
2022-07-28T12:48:06.853Z,95349.81
2022-07-28T12:50:53.179Z,95344.56
2022-07-28T12:53:51.125Z,95335.56
2022-07-28T12:56:53.503Z,95346.34
2022-07-28T12:59:40.262Z,95340.47
2022-07-28T13:02:37.295Z,95346.13
2022-07-28T13:05:55.991Z,95348.59
2022-07-28T13:08:45.112Z,95338.47
2022-07-28T13:11:45.918Z,95333.84
2022-07-28T13:14:44.427Z,95324.53
2022-07-28T13:17:49.391Z,95329.91
2022-07-28T13:20:49.347Z,95330.75
2022-07-28T13:23:35.728Z,95323.84
2022-07-28T13:26:21.904Z,95319.97
2022-07-28T13:29:12.856Z,95311.41
2022-07-28T13:31:59.578Z,95295.97
2022-07-28T13:34:46.418Z,95293.59
2022-07-28T13:37:32.295Z,95287.09
2022-07-28T13:40:18.156Z,95285.50
2022-07-28T13:43:04.912Z,95289.13
2022-07-28T13:46:00.125Z,95290.75
2022-07-28T13:48:58.103Z,95287.50
2022-07-28T13:51:46.141Z,95284.56
2022-07-28T13:54:32.320Z,95281.38
2022-07-28T13:57:18.946Z,95283.31
2022-07-28T14:00:08.999Z,95283.81
2022-07-28T14:02:55.587Z,95295.69
2022-07-28T14:05:41.768Z,95292.28
2022-07-28T14:08:29.233Z,95267.81
2022-07-28T14:11:15.533Z,95287.16
2022-07-28T14:14:01.551Z,95281.19
2022-07-28T14:16:48.190Z,95274.53
2022-07-28T14:19:38.902Z,95280.06
2022-07-28T14:22:26.009Z,95289.97
2022-07-28T14:25:20.562Z,95285.88
2022-07-28T14:28:09.085Z,95290.22
2022-07-28T14:30:55.130Z,95276.66
2022-07-28T14:33:46.404Z,95281.81
2022-07-28T14:36:34.563Z,95282.28
2022-07-28T14:39:20.665Z,95285.50
2022-07-28T14:42:06.856Z,95289.22
2022-07-28T14:44:53.220Z,95296.53
2022-07-28T14:47:45.325Z,95298.69
2022-07-28T14:50:32.006Z,95297.31
2022-07-28T14:53:22.088Z,95292.41
2022-07-28T14:56:13.345Z,95288.69
2022-07-28T14:58:59.407Z,95288.38
2022-07-28T15:01:48.649Z,95284.22
2022-07-28T15:04:35.278Z,95294.78
2022-07-28T15:07:21.533Z,95289.59
2022-07-28T15:10:08.466Z,95281.81
2022-07-28T15:12:54.359Z,95291.59
2022-07-28T15:15:44.586Z,95299.59
2022-07-28T15:18:31.340Z,95271.75
2022-07-28T15:21:18.049Z,95289.78
2022-07-28T15:24:04.617Z,95278.53
2022-07-28T15:26:50.688Z,95257.34
2022-07-28T15:29:37.611Z,95283.94
2022-07-28T15:32:27.194Z,95285.16
2022-07-28T15:35:14.526Z,95279.72
2022-07-28T15:38:00.785Z,95290.59
2022-07-28T15:40:48.235Z,95295.25
2022-07-28T15:43:36.653Z,95312.09
2022-07-28T15:46:22.664Z,95299.31
2022-07-28T15:49:10.679Z,95298.72
2022-07-28T15:51:57.904Z,95280.66
2022-07-28T15:54:44.242Z,95278.25
2022-07-28T15:57:38.038Z,95264.97
2022-07-28T16:00:24.218Z,95281.59
2022-07-28T16:03:11.567Z,95263.09
2022-07-28T16:05:58.843Z,95277.59
2022-07-28T16:08:45.495Z,95258.66
2022-07-28T16:11:32.155Z,95279.03
2022-07-28T16:14:18.599Z,95273.88
2022-07-28T16:17:05.079Z,95279.13
2022-07-28T16:19:52.294Z,95295.41
2022-07-28T16:22:40.314Z,95300.50
2022-07-28T16:25:26.713Z,95309.97
2022-07-28T16:28:13.015Z,95295.84
2022-07-28T16:30:59.328Z,95299.56
2022-07-28T16:33:46.097Z,95302.66
2022-07-28T16:36:32.066Z,95316.50
2022-07-28T16:39:18.107Z,95317.31
2022-07-28T16:42:05.636Z,95309.00
2022-07-28T16:44:51.603Z,95324.94
2022-07-28T16:47:37.303Z,95334.19
2022-07-28T16:50:26.452Z,95342.44
2022-07-28T16:53:13.972Z,95351.53
2022-07-28T16:56:00.016Z,95342.06
2022-07-28T16:58:47.262Z,95349.34
2022-07-28T17:01:33.634Z,95354.06
2022-07-28T17:04:20.585Z,95359.44
2022-07-28T17:07:07.015Z,95360.03
2022-07-28T17:09:53.018Z,95359.66
2022-07-28T17:12:39.491Z,95364.66
2022-07-28T17:15:25.806Z,95353.25
2022-07-28T17:18:12.360Z,95354.88
2022-07-28T17:20:58.426Z,95347.81
2022-07-28T17:23:44.681Z,95359.66
2022-07-28T17:29:39.906Z,95355.84
2022-07-28T17:32:26.030Z,95360.38
2022-07-28T17:35:34.562Z,95364.06
2022-07-28T17:38:21.737Z,95351.09
2022-07-28T17:41:09.190Z,95362.50
2022-07-28T17:43:55.092Z,95363.28
2022-07-28T17:46:41.388Z,95369.25
2022-07-28T17:49:29.288Z,95382.13
2022-07-28T17:52:15.302Z,95386.13
2022-07-28T17:55:20.019Z,95384.81
2022-07-28T17:58:28.118Z,95397.09
2022-07-28T18:01:15.253Z,95393.19
2022-07-28T18:04:01.637Z,95402.72
2022-07-28T18:06:47.505Z,95399.56
2022-07-28T18:09:33.468Z,95401.44
2022-07-28T18:12:19.438Z,95400.44
2022-07-28T18:15:05.669Z,95410.22
2022-07-28T18:17:54.900Z,95410.56
2022-07-28T18:20:42.769Z,95425.88
2022-07-28T18:23:29.059Z,95426.06
2022-07-28T18:26:15.536Z,95433.69
2022-07-28T18:29:01.654Z,95420.25
2022-07-28T18:31:48.160Z,95436.78
2022-07-28T18:34:34.316Z,95446.78
2022-07-28T18:37:20.598Z,95456.06
2022-07-28T18:40:07.777Z,95474.06
2022-07-28T18:42:53.996Z,95496.13
2022-07-28T18:45:39.830Z,95506.19
2022-07-28T18:48:26.500Z,95522.66
2022-07-28T18:51:12.957Z,95520.00
2022-07-28T18:53:59.025Z,95539.88
2022-07-28T18:56:44.935Z,95521.06
2022-07-28T18:59:32.535Z,95558.16
2022-07-28T19:02:18.811Z,95593.78
2022-07-28T19:05:06.562Z,95622.19
2022-07-28T19:07:52.424Z,95656.47
2022-07-28T19:10:38.285Z,95673.56
2022-07-28T19:13:24.262Z,95692.69
2022-07-28T19:16:10.342Z,95706.25
2022-07-28T19:18:56.248Z,95701.06
2022-07-28T19:21:43.445Z,95701.06
2022-07-28T19:24:31.779Z,95735.13
2022-07-28T19:27:19.192Z,95729.38
2022-07-28T19:30:07.424Z,95736.56
2022-07-28T19:32:53.685Z,95739.00
2022-07-28T19:35:39.643Z,95739.59
2022-07-28T19:38:26.231Z,95730.00
2022-07-28T19:41:16.406Z,95735.53
2022-07-28T19:44:02.706Z,95715.81
2022-07-28T19:46:49.390Z,95714.75
2022-07-28T19:49:35.551Z,95717.50
2022-07-28T19:52:22.869Z,95691.22
2022-07-28T19:55:09.977Z,95695.63
2022-07-28T19:57:55.962Z,95666.59
2022-07-28T20:00:42.324Z,95670.41
2022-07-28T20:04:00.564Z,95656.44
2022-07-28T20:06:34.832Z,95652.88
2022-07-28T20:09:21.993Z,95640.63
2022-07-28T20:12:08.869Z,95647.53
2022-07-28T20:14:56.106Z,95648.09
2022-07-28T20:17:42.178Z,95646.47
2022-07-28T20:20:28.446Z,95645.69
2022-07-28T20:23:15.134Z,95645.13
2022-07-28T20:26:00.941Z,95631.44
2022-07-28T20:28:48.182Z,95621.94
2022-07-28T20:31:34.400Z,95622.75
2022-07-28T20:34:21.117Z,95626.84
2022-07-28T20:37:07.133Z,95618.66
2022-07-28T20:40:12.966Z,95630.19
2022-07-28T20:42:59.125Z,95613.50
2022-07-28T20:45:45.749Z,95616.53
2022-07-28T20:48:31.959Z,95607.19
2022-07-28T20:51:18.190Z,95585.91
2022-07-28T20:54:04.697Z,95584.50
2022-07-28T20:56:50.938Z,95582.63
2022-07-28T20:59:36.908Z,95574.97
2022-07-28T21:02:24.514Z,95578.00
2022-07-28T21:05:23.921Z,95584.88
2022-07-28T21:08:16.989Z,95592.81
2022-07-28T21:11:04.475Z,95575.00
2022-07-28T21:13:50.514Z,95584.31
2022-07-28T21:16:36.502Z,95571.97
2022-07-28T21:19:22.471Z,95592.81
2022-07-28T21:22:09.334Z,95581.03
2022-07-28T21:24:55.950Z,95593.34
2022-07-28T21:28:00.308Z,95592.25
2022-07-28T21:30:48.581Z,95595.28
2022-07-28T21:33:34.551Z,95577.75
2022-07-28T21:36:20.658Z,95587.34
2022-07-28T21:39:07.030Z,95596.91
2022-07-28T21:41:52.938Z,95604.56
2022-07-28T21:44:38.839Z,95594.47
2022-07-28T21:47:24.724Z,95616.34
2022-07-28T21:50:10.944Z,95620.44
2022-07-28T21:52:56.967Z,95625.91
2022-07-28T21:55:42.710Z,95634.94
2022-07-28T21:58:29.002Z,95635.75
2022-07-28T22:01:15.408Z,95653.00
2022-07-28T22:04:01.474Z,95633.03
2022-07-28T22:06:47.753Z,95628.94
2022-07-28T22:09:37.848Z,95642.31
2022-07-28T22:12:24.004Z,95637.16
2022-07-28T22:15:10.354Z,95654.38
2022-07-28T22:17:56.204Z,95636.31
2022-07-28T22:20:42.221Z,95652.44
2022-07-28T22:23:29.335Z,95655.47
2022-07-28T22:26:15.890Z,95659.31
2022-07-28T22:29:01.721Z,95662.28
2022-07-28T22:31:47.761Z,95651.63
2022-07-28T22:34:34.120Z,95654.38
2022-07-28T22:37:20.261Z,95646.69
2022-07-28T22:40:06.799Z,95658.47
2022-07-28T22:42:52.780Z,95646.97
2022-07-28T22:45:51.027Z,95660.94
2022-07-28T22:48:37.615Z,95669.16
2022-07-28T22:51:23.510Z,95671.31
2022-07-28T22:54:09.463Z,95663.94
2022-07-28T22:56:55.551Z,95660.94
2022-07-28T22:59:42.172Z,95659.56
2022-07-28T23:02:32.844Z,95656.00
2022-07-28T23:05:19.657Z,95642.63
2022-07-28T23:08:06.301Z,95638.50
2022-07-28T23:10:52.909Z,95658.22
2022-07-28T23:13:38.776Z,95636.06
2022-07-28T23:16:24.711Z,95653.81
2022-07-28T23:19:10.529Z,95649.16
2022-07-28T23:21:56.487Z,95639.84
2022-07-28T23:24:42.361Z,95641.53
2022-07-28T23:27:28.238Z,95636.06
2022-07-28T23:30:14.130Z,95627.28
2022-07-28T23:32:59.954Z,95631.41
2022-07-28T23:35:45.981Z,95612.25
2022-07-28T23:38:31.879Z,95618.53
2022-07-28T23:41:17.787Z,95622.09
2022-07-28T23:44:03.700Z,95619.59
2022-07-28T23:46:49.903Z,95612.50
2022-07-28T23:49:35.699Z,95618.53
2022-07-28T23:52:21.460Z,95611.38
2022-07-28T23:55:08.237Z,95607.28
2022-07-28T23:57:54.265Z,95619.03
